createdAt,value
2023-01-25T00:00:53.961Z,8.80
2023-01-25T00:03:21.585Z,8.60
2023-01-25T00:05:49.191Z,8.70
2023-01-25T00:08:16.893Z,8.70
2023-01-25T00:10:44.332Z,8.80
2023-01-25T00:13:11.958Z,8.80
2023-01-25T00:15:39.417Z,8.60
2023-01-25T00:18:06.869Z,8.60
2023-01-25T00:20:34.378Z,8.70
2023-01-25T00:23:02.099Z,8.60
2023-01-25T00:25:29.552Z,8.70
2023-01-25T00:27:57.093Z,8.70
2023-01-25T00:30:24.583Z,8.60
2023-01-25T00:33:18.165Z,8.70
2023-01-25T00:35:45.799Z,8.60
2023-01-25T00:38:33.841Z,8.60
2023-01-25T00:41:01.469Z,8.60
2023-01-25T00:43:28.964Z,8.60
2023-01-25T00:46:02.617Z,8.70
2023-01-25T00:48:30.714Z,8.50
2023-01-25T00:51:02.070Z,8.60
2023-01-25T00:53:29.932Z,8.70
2023-01-25T00:55:57.611Z,8.80
2023-01-25T00:58:25.341Z,8.90
2023-01-25T01:00:54.592Z,8.90
2023-01-25T01:03:22.876Z,9.10
2023-01-25T01:06:01.570Z,9.10
2023-01-25T01:08:29.342Z,9.10
2023-01-25T01:11:01.628Z,9.10
2023-01-25T01:13:29.686Z,9.10
2023-01-25T01:16:02.857Z,9.20
2023-01-25T01:18:35.411Z,9.10
2023-01-25T01:21:03.157Z,9.10
2023-01-25T01:23:31.699Z,9.20
2023-01-25T01:26:08.049Z,9.20
2023-01-25T01:28:39.506Z,9.20
2023-01-25T01:31:19.685Z,9.20
2023-01-25T01:33:57.147Z,9.20
2023-01-25T01:36:27.586Z,9.20
2023-01-25T01:38:55.688Z,9.20
2023-01-25T01:41:24.158Z,9.10
2023-01-25T01:43:53.254Z,9.10
2023-01-25T01:46:41.499Z,9.10
2023-01-25T01:49:23.542Z,9.00
2023-01-25T01:52:00.954Z,8.90
2023-01-25T01:54:42.011Z,8.90
2023-01-25T01:57:18.406Z,9.00
2023-01-25T02:00:01.291Z,9.00
2023-01-25T02:02:29.258Z,9.10
2023-01-25T02:05:01.102Z,9.00
2023-01-25T02:07:37.099Z,8.90
2023-01-25T02:10:09.647Z,9.00
2023-01-25T02:12:38.414Z,9.00
2023-01-25T02:15:09.609Z,8.90
2023-01-25T02:17:39.255Z,9.10
2023-01-25T02:20:18.689Z,9.10
2023-01-25T02:23:04.605Z,8.90
2023-01-25T02:25:32.110Z,8.90
2023-01-25T02:28:26.476Z,8.90
2023-01-25T02:30:54.375Z,8.90
2023-01-25T02:33:25.880Z,9.10
2023-01-25T02:36:08.323Z,9.10
2023-01-25T02:38:42.480Z,9.00
2023-01-25T02:41:18.242Z,9.00
2023-01-25T02:43:45.806Z,9.00
2023-01-25T02:46:31.906Z,8.90
2023-01-25T02:49:01.141Z,9.00
2023-01-25T02:51:32.055Z,9.10
2023-01-25T02:54:00.924Z,9.00
2023-01-25T02:56:28.684Z,9.00
2023-01-25T02:58:56.763Z,9.10
2023-01-25T03:01:24.763Z,9.20
2023-01-25T03:03:52.332Z,9.30
2023-01-25T03:06:20.379Z,9.20
2023-01-25T03:08:48.528Z,9.40
2023-01-25T03:11:16.067Z,9.30
2023-01-25T03:13:44.569Z,9.40
2023-01-25T03:16:13.899Z,9.30
2023-01-25T03:18:44.563Z,9.40
2023-01-25T03:21:21.062Z,9.40
2023-01-25T03:23:49.037Z,9.40
2023-01-25T03:26:23.241Z,9.40
2023-01-25T03:29:06.385Z,9.50
2023-01-25T03:31:36.430Z,9.40
2023-01-25T03:34:03.994Z,9.50
2023-01-25T03:36:35.820Z,9.50
2023-01-25T03:39:03.965Z,9.40
2023-01-25T03:41:31.489Z,9.40
2023-01-25T03:44:00.510Z,9.40
2023-01-25T03:46:28.753Z,9.40
2023-01-25T03:48:56.563Z,9.40
2023-01-25T03:51:24.193Z,9.40
2023-01-25T03:53:51.994Z,9.40
2023-01-25T03:56:20.609Z,9.40
2023-01-25T03:59:01.810Z,9.30
2023-01-25T04:01:30.259Z,9.30
2023-01-25T04:03:57.774Z,9.30
2023-01-25T04:06:25.890Z,9.40
2023-01-25T04:08:53.388Z,9.20
2023-01-25T04:11:24.512Z,9.20
2023-01-25T04:13:54.778Z,9.30
2023-01-25T04:16:24.483Z,9.40
2023-01-25T04:19:12.734Z,9.50
2023-01-25T04:21:40.678Z,9.50
2023-01-25T04:24:08.619Z,9.60
2023-01-25T04:26:39.541Z,9.60
2023-01-25T04:29:07.349Z,9.80
2023-01-25T04:31:35.202Z,9.80
2023-01-25T04:34:03.462Z,9.80
2023-01-25T04:36:30.949Z,9.80
2023-01-25T04:38:59.072Z,9.80
2023-01-25T04:41:29.361Z,9.90
2023-01-25T04:43:57.742Z,9.90
2023-01-25T04:46:25.732Z,9.90
2023-01-25T04:48:54.927Z,9.80
2023-01-25T04:51:22.452Z,9.80
2023-01-25T04:53:50.076Z,9.80
2023-01-25T04:56:18.184Z,9.80
2023-01-25T04:58:51.477Z,9.70
2023-01-25T05:01:19.007Z,9.70
2023-01-25T05:03:46.533Z,9.80
2023-01-25T05:06:25.640Z,9.70
2023-01-25T05:08:53.391Z,9.80
2023-01-25T05:11:21.268Z,9.80
2023-01-25T05:14:20.875Z,9.80
2023-01-25T05:16:48.656Z,9.80
2023-01-25T05:19:16.189Z,9.90
2023-01-25T05:22:07.734Z,9.90
2023-01-25T05:24:45.294Z,9.90
2023-01-25T05:27:17.894Z,9.90
2023-01-25T05:29:55.130Z,9.90
2023-01-25T05:32:50.253Z,9.90
2023-01-25T05:35:18.710Z,9.90
2023-01-25T05:37:47.040Z,9.90
2023-01-25T05:40:21.386Z,9.90
2023-01-25T05:42:57.258Z,9.90
2023-01-25T05:45:26.488Z,9.80
2023-01-25T05:47:57.612Z,9.90
2023-01-25T05:50:26.305Z,9.80
2023-01-25T05:53:01.622Z,9.70
2023-01-25T05:55:30.471Z,9.60
2023-01-25T05:58:02.473Z,9.60
2023-01-25T06:00:30.002Z,9.60
2023-01-25T06:03:01.651Z,9.60
2023-01-25T06:05:31.291Z,9.50
2023-01-25T06:07:59.679Z,9.50
2023-01-25T06:10:33.576Z,9.50
2023-01-25T06:13:01.150Z,9.50
2023-01-25T06:15:28.736Z,9.40
2023-01-25T06:18:06.003Z,9.40
2023-01-25T06:20:57.513Z,9.40
2023-01-25T06:23:36.372Z,9.40
2023-01-25T06:26:10.304Z,9.30
2023-01-25T06:28:38.707Z,9.40
2023-01-25T06:31:15.184Z,9.40
2023-01-25T06:33:47.858Z,9.40
2023-01-25T06:36:18.408Z,9.30
2023-01-25T06:38:53.696Z,9.30
2023-01-25T06:41:21.920Z,9.20
2023-01-25T06:43:54.679Z,9.20
2023-01-25T06:46:23.073Z,9.20
2023-01-25T06:48:50.575Z,9.20
2023-01-25T06:51:18.368Z,9.30
2023-01-25T06:53:47.579Z,9.10
2023-01-25T06:56:18.567Z,9.30
2023-01-25T06:58:46.459Z,9.20
2023-01-25T07:01:22.742Z,9.10
2023-01-25T07:03:52.077Z,9.00
2023-01-25T07:06:20.121Z,9.00
2023-01-25T07:08:47.960Z,9.00
2023-01-25T07:11:18.899Z,9.00
2023-01-25T07:13:47.305Z,9.00
2023-01-25T07:16:19.798Z,9.00
2023-01-25T07:18:47.786Z,9.00
2023-01-25T07:21:20.613Z,8.90
2023-01-25T07:23:52.635Z,8.80
2023-01-25T07:26:25.462Z,8.80
2023-01-25T07:28:53.660Z,8.80
2023-01-25T07:31:21.726Z,8.80
2023-01-25T07:33:50.680Z,8.70
2023-01-25T07:36:19.829Z,8.80
2023-01-25T07:38:47.990Z,8.80
2023-01-25T07:41:16.522Z,8.70
2023-01-25T07:43:44.115Z,8.70
2023-01-25T07:46:13.782Z,8.80
2023-01-25T07:48:45.292Z,8.70
2023-01-25T07:51:13.091Z,8.80
2023-01-25T07:53:44.084Z,8.90
2023-01-25T07:56:12.689Z,8.80
2023-01-25T07:58:40.488Z,8.80
2023-01-25T08:01:13.301Z,8.90
2023-01-25T08:03:41.570Z,8.90
2023-01-25T08:06:10.228Z,8.80
2023-01-25T08:08:44.149Z,8.80
2023-01-25T08:11:19.048Z,8.80
2023-01-25T08:13:47.488Z,8.80
2023-01-25T08:16:20.665Z,8.80
2023-01-25T08:18:54.918Z,8.90
2023-01-25T08:21:30.099Z,8.70
2023-01-25T08:24:00.229Z,8.90
2023-01-25T08:26:29.556Z,9.10
2023-01-25T08:28:58.480Z,9.20
2023-01-25T08:31:29.026Z,9.40
2023-01-25T08:33:56.932Z,9.40
2023-01-25T08:36:24.862Z,9.50
2023-01-25T08:38:58.001Z,9.40
2023-01-25T08:41:28.533Z,9.40
2023-01-25T08:43:57.013Z,9.50
2023-01-25T08:46:27.970Z,9.50
2023-01-25T08:48:57.363Z,9.50
2023-01-25T08:51:25.720Z,9.50
2023-01-25T08:53:53.796Z,9.50
2023-01-25T08:56:21.468Z,9.60
2023-01-25T08:58:50.317Z,9.50
2023-01-25T09:01:20.188Z,9.50
2023-01-25T09:03:50.160Z,9.50
2023-01-25T09:06:20.336Z,9.40
2023-01-25T09:08:48.548Z,9.40
2023-01-25T09:11:24.751Z,9.40
2023-01-25T09:13:52.275Z,9.30
2023-01-25T09:16:28.270Z,9.40
2023-01-25T09:19:05.705Z,9.40
2023-01-25T09:21:34.254Z,9.30
2023-01-25T09:24:06.668Z,9.30
2023-01-25T09:26:43.008Z,9.20
2023-01-25T09:29:12.143Z,9.20
2023-01-25T09:31:45.864Z,9.20
2023-01-25T09:34:39.793Z,9.20
2023-01-25T09:37:07.351Z,9.10
2023-01-25T09:39:34.818Z,9.10
2023-01-25T09:42:23.457Z,9.10
2023-01-25T09:44:52.390Z,9.10
2023-01-25T09:47:29.053Z,9.10
2023-01-25T09:50:17.223Z,9.10
2023-01-25T09:53:15.280Z,9.10
2023-01-25T09:55:43.095Z,9.10
2023-01-25T09:58:19.354Z,9.10
2023-01-25T10:00:50.395Z,9.10
2023-01-25T10:03:23.034Z,9.10
2023-01-25T10:05:54.138Z,9.10
2023-01-25T10:08:49.336Z,9.10
2023-01-25T10:11:26.675Z,9.10
2023-01-25T10:13:58.489Z,9.00
2023-01-25T10:16:46.898Z,9.10
2023-01-25T10:19:45.174Z,9.10
2023-01-25T10:22:25.108Z,9.10
2023-01-25T10:25:07.733Z,9.00
2023-01-25T10:27:41.388Z,9.00
2023-01-25T10:30:27.761Z,9.00
2023-01-25T10:33:09.893Z,9.00
2023-01-25T10:35:45.843Z,8.90
2023-01-25T10:38:24.535Z,8.90
2023-01-25T10:41:07.881Z,8.90
2023-01-25T10:43:35.445Z,8.80
2023-01-25T10:46:03.128Z,8.80
2023-01-25T10:48:35.517Z,8.70
2023-01-25T10:51:03.058Z,8.70
2023-01-25T10:53:44.256Z,8.70
2023-01-25T10:56:11.761Z,8.60
2023-01-25T10:58:46.259Z,8.50
2023-01-25T11:01:31.820Z,8.40
2023-01-25T11:04:01.568Z,8.40
2023-01-25T11:06:36.095Z,8.50
2023-01-25T11:09:29.725Z,8.40
2023-01-25T11:12:07.429Z,8.60
2023-01-25T11:14:35.079Z,8.60
2023-01-25T11:17:06.031Z,8.50
2023-01-25T11:19:36.917Z,8.50
2023-01-25T11:22:20.041Z,8.50
2023-01-25T11:24:47.791Z,8.60
2023-01-25T11:27:21.149Z,8.70
2023-01-25T11:30:14.922Z,8.80
2023-01-25T11:40:09.948Z,9.00
2023-01-25T11:43:02.852Z,8.90
2023-01-25T11:45:47.561Z,8.90
2023-01-25T11:48:33.018Z,8.80
2023-01-25T11:51:00.539Z,8.90
2023-01-25T11:53:36.488Z,8.90
2023-01-25T11:56:07.261Z,9.10
2023-01-25T11:59:07.004Z,9.10
2023-01-25T12:01:56.455Z,9.10
2023-01-25T12:04:33.245Z,9.10
2023-01-25T12:07:00.733Z,9.00
2023-01-25T12:09:47.254Z,9.00
2023-01-25T12:12:36.430Z,9.00
2023-01-25T12:15:26.261Z,9.10
2023-01-25T12:18:38.757Z,9.20
2023-01-25T12:21:09.489Z,9.10
2023-01-25T12:23:59.972Z,9.10
2023-01-25T12:26:30.302Z,9.20
2023-01-25T12:29:36.232Z,9.20
2023-01-25T12:32:35.924Z,9.10
2023-01-25T12:35:21.871Z,9.20
2023-01-25T12:37:53.995Z,9.20
2023-01-25T12:40:32.353Z,9.20
2023-01-25T12:43:01.693Z,9.20
2023-01-25T12:45:34.998Z,9.30
2023-01-25T12:48:25.748Z,9.30
2023-01-25T12:50:58.287Z,9.10
2023-01-25T12:53:31.590Z,9.20
2023-01-25T12:56:00.108Z,9.10
2023-01-25T12:59:09.625Z,9.10
2023-01-25T13:02:03.975Z,9.20
2023-01-25T13:04:56.261Z,9.10
2023-01-25T13:07:57.324Z,9.40
2023-01-25T13:10:30.688Z,9.20
2023-01-25T13:13:17.676Z,9.10
2023-01-25T13:15:46.611Z,9.10
2023-01-25T13:18:29.314Z,9.30
2023-01-25T13:21:08.355Z,9.20
2023-01-25T13:23:50.823Z,9.30
2023-01-25T13:26:21.523Z,9.40
2023-01-25T13:28:53.944Z,9.50
2023-01-25T13:31:51.858Z,9.30
2023-01-25T13:34:39.263Z,9.00
2023-01-25T13:37:25.858Z,9.10
2023-01-25T13:40:06.509Z,9.10
2023-01-25T13:42:39.546Z,9.00
2023-01-25T13:45:18.783Z,9.00
2023-01-25T13:48:13.205Z,9.00
2023-01-25T13:50:57.884Z,9.00
2023-01-25T13:53:29.559Z,9.00
2023-01-25T13:55:58.709Z,9.00
2023-01-25T13:58:29.898Z,9.00
2023-01-25T14:01:08.140Z,8.90
2023-01-25T14:03:55.323Z,9.00
2023-01-25T14:06:24.794Z,9.00
2023-01-25T14:08:53.795Z,8.90
2023-01-25T14:11:25.283Z,9.00
2023-01-25T14:13:56.525Z,8.90
2023-01-25T14:16:24.121Z,8.90
2023-01-25T14:18:51.637Z,9.00
2023-01-25T14:21:21.354Z,9.00
2023-01-25T14:23:49.535Z,8.90
2023-01-25T14:26:20.021Z,8.90
2023-01-25T14:28:59.446Z,8.90
2023-01-25T14:31:36.461Z,8.80
2023-01-25T14:34:06.190Z,8.90
2023-01-25T14:36:34.804Z,8.90
2023-01-25T14:39:13.462Z,8.90
2023-01-25T14:41:55.206Z,8.90
2023-01-25T14:44:28.344Z,8.90
2023-01-25T14:47:30.494Z,8.90
2023-01-25T14:50:30.493Z,8.80
2023-01-25T14:53:00.836Z,8.70
2023-01-25T14:55:29.306Z,8.60
2023-01-25T14:58:00.818Z,8.60
2023-01-25T15:00:34.451Z,8.50
2023-01-25T15:03:06.152Z,8.50
2023-01-25T15:05:36.382Z,8.50
2023-01-25T15:08:06.951Z,8.50
2023-01-25T15:10:37.246Z,8.50
2023-01-25T15:13:22.660Z,8.50
2023-01-25T15:16:00.196Z,8.50
2023-01-25T15:18:42.961Z,8.40
2023-01-25T15:21:32.538Z,8.40
2023-01-25T15:24:05.029Z,8.30
2023-01-25T15:26:35.581Z,8.30
2023-01-25T15:29:13.963Z,8.20
2023-01-25T15:31:42.384Z,8.20
2023-01-25T15:34:26.402Z,8.10
2023-01-25T15:36:54.184Z,8.20
2023-01-25T15:39:22.065Z,8.10
2023-01-25T15:41:49.653Z,8.10
2023-01-25T15:44:20.111Z,8.10
2023-01-25T15:46:51.632Z,8.10
2023-01-25T15:49:25.876Z,8.00
2023-01-25T15:51:54.436Z,8.00
2023-01-25T15:54:22.267Z,8.10
2023-01-25T15:56:55.688Z,7.90
2023-01-25T15:59:23.484Z,8.00
2023-01-25T16:01:51.078Z,7.90
2023-01-25T16:04:19.026Z,7.90
2023-01-25T16:06:48.543Z,7.80
2023-01-25T16:09:27.287Z,7.80
2023-01-25T16:11:57.118Z,7.70
2023-01-25T16:14:31.830Z,7.80
2023-01-25T16:17:05.606Z,7.80
2023-01-25T16:19:33.862Z,7.70
2023-01-25T16:22:01.573Z,7.70
2023-01-25T16:24:29.699Z,7.70
2023-01-25T16:26:58.877Z,7.70
2023-01-25T16:29:27.208Z,7.70
2023-01-25T16:31:56.382Z,7.70
2023-01-25T16:34:23.963Z,7.80
2023-01-25T16:36:51.561Z,7.80
2023-01-25T16:39:24.749Z,7.60
2023-01-25T16:41:52.496Z,7.70
2023-01-25T16:44:20.296Z,7.50
2023-01-25T16:46:51.226Z,7.50
2023-01-25T16:49:26.515Z,7.50
2023-01-25T16:51:55.002Z,7.50
2023-01-25T16:54:23.890Z,7.50
2023-01-25T16:56:53.186Z,7.50
2023-01-25T16:59:22.464Z,7.40
2023-01-25T17:01:50.067Z,7.40
2023-01-25T17:04:18.295Z,7.50
2023-01-25T17:06:49.053Z,7.40
2023-01-25T17:09:24.886Z,7.40
2023-01-25T17:11:54.159Z,7.40
2023-01-25T17:14:22.256Z,7.30
2023-01-25T17:16:51.644Z,7.30
2023-01-25T17:19:20.226Z,7.30
2023-01-25T17:21:48.371Z,7.20
2023-01-25T17:24:18.894Z,7.20
2023-01-25T17:26:46.632Z,7.20
2023-01-25T17:29:14.079Z,7.20
2023-01-25T17:31:42.392Z,7.10
2023-01-25T17:34:16.173Z,7.20
2023-01-25T17:36:44.599Z,7.20
2023-01-25T17:39:17.367Z,7.20
2023-01-25T17:41:47.394Z,7.10
2023-01-25T17:44:20.149Z,7.10
2023-01-25T17:46:48.508Z,7.10
2023-01-25T17:49:19.044Z,7.20
2023-01-25T17:51:46.575Z,7.30
2023-01-25T17:54:14.264Z,7.20
2023-01-25T17:56:42.602Z,7.20
2023-01-25T17:59:11.607Z,7.20
2023-01-25T18:01:42.561Z,7.20
2023-01-25T18:04:10.498Z,7.20
2023-01-25T18:06:38.020Z,7.30
2023-01-25T18:09:08.828Z,7.10
2023-01-25T18:11:38.031Z,7.10
2023-01-25T18:14:10.615Z,7.20
2023-01-25T18:16:40.115Z,7.10
2023-01-25T18:19:08.781Z,7.10
2023-01-25T18:21:37.093Z,7.10
2023-01-25T18:24:26.402Z,7.00
2023-01-25T18:27:06.604Z,7.00
2023-01-25T18:29:49.234Z,7.00
2023-01-25T18:32:16.876Z,7.10
2023-01-25T18:34:44.409Z,7.00
2023-01-25T18:37:18.184Z,6.90
2023-01-25T18:39:46.871Z,6.90
2023-01-25T18:42:14.586Z,6.90
2023-01-25T18:44:43.527Z,6.90
2023-01-25T18:47:13.855Z,6.90
2023-01-25T18:49:41.702Z,6.90
2023-01-25T18:52:11.898Z,7.00
2023-01-25T18:54:39.670Z,6.90
2023-01-25T18:57:09.802Z,6.80
2023-01-25T18:59:37.491Z,6.80
2023-01-25T19:02:06.121Z,6.80
2023-01-25T19:04:33.634Z,6.80
2023-01-25T19:07:01.700Z,6.80
2023-01-25T19:09:29.342Z,6.80
2023-01-25T19:11:57.330Z,6.80
2023-01-25T19:14:25.390Z,6.80
2023-01-25T19:16:53.095Z,6.80
2023-01-25T19:19:23.597Z,6.80
2023-01-25T19:21:51.156Z,6.80
2023-01-25T19:24:19.675Z,6.80
2023-01-25T19:26:47.521Z,6.80
2023-01-25T19:29:15.787Z,6.80
2023-01-25T19:31:43.362Z,6.80
2023-01-25T19:34:10.905Z,6.80
2023-01-25T19:36:45.848Z,6.80
2023-01-25T19:39:13.457Z,6.80
2023-01-25T19:41:41.024Z,6.90
2023-01-25T19:44:12.211Z,6.90
2023-01-25T19:46:40.159Z,6.90
2023-01-25T19:49:09.678Z,6.90
2023-01-25T19:51:39.919Z,6.90
2023-01-25T19:54:11.639Z,6.90
2023-01-25T19:56:41.007Z,6.90
2023-01-25T19:59:12.379Z,6.90
2023-01-25T20:01:44.035Z,6.90
2023-01-25T20:04:13.879Z,6.80
2023-01-25T20:06:41.828Z,6.80
2023-01-25T20:09:13.264Z,6.80
2023-01-25T20:11:41.739Z,6.80
2023-01-25T20:14:11.859Z,6.80
2023-01-25T20:16:39.457Z,6.80
2023-01-25T20:19:07.096Z,6.80
2023-01-25T20:21:38.105Z,6.80
2023-01-25T20:24:06.493Z,6.70
2023-01-25T20:26:38.907Z,6.70
2023-01-25T20:29:07.512Z,6.80
2023-01-25T20:31:43.574Z,6.80
2023-01-25T20:34:14.392Z,6.80
2023-01-25T20:36:43.306Z,6.80
2023-01-25T20:39:16.846Z,6.80
2023-01-25T20:41:45.302Z,6.90
2023-01-25T20:44:17.927Z,6.80
2023-01-25T20:46:46.049Z,6.80
2023-01-25T20:49:18.037Z,6.80
2023-01-25T20:51:46.466Z,6.80
2023-01-25T20:54:14.606Z,6.80
2023-01-25T20:56:43.079Z,6.80
2023-01-25T20:59:10.835Z,6.80
2023-01-25T21:01:38.403Z,6.80
2023-01-25T21:04:07.991Z,6.70
2023-01-25T21:06:36.012Z,6.80
2023-01-25T21:09:04.513Z,6.70
2023-01-25T21:11:32.821Z,6.70
2023-01-25T21:14:00.276Z,6.70
2023-01-25T21:16:27.927Z,6.70
2023-01-25T21:18:57.816Z,6.70
2023-01-25T21:21:30.586Z,6.70
2023-01-25T21:24:02.464Z,6.70
2023-01-25T21:26:33.551Z,6.80
2023-01-25T21:29:02.917Z,6.80
2023-01-25T21:31:33.741Z,6.90
2023-01-25T21:34:02.045Z,6.80
2023-01-25T21:36:29.953Z,6.90
2023-01-25T21:38:58.382Z,7.00
2023-01-25T21:41:29.627Z,7.00
2023-01-25T21:44:17.578Z,7.00
2023-01-25T21:47:06.070Z,7.00
2023-01-25T21:49:51.935Z,7.00
2023-01-25T21:52:19.466Z,7.10
2023-01-25T21:54:46.869Z,7.10
2023-01-25T21:57:14.460Z,7.10
2023-01-25T21:59:41.905Z,7.10
2023-01-25T22:02:14.055Z,7.00
2023-01-25T22:04:41.781Z,7.00
2023-01-25T22:07:10.997Z,7.10
2023-01-25T22:09:38.548Z,7.10
2023-01-25T22:12:06.089Z,7.10
2023-01-25T22:14:34.817Z,7.10
2023-01-25T22:17:03.268Z,7.10
2023-01-25T22:19:30.813Z,7.10
2023-01-25T22:21:58.239Z,7.10
2023-01-25T22:24:25.794Z,7.20
2023-01-25T22:27:17.885Z,7.10
2023-01-25T22:29:45.361Z,7.20
2023-01-25T22:32:12.819Z,7.20
2023-01-25T22:34:40.339Z,7.20
2023-01-25T22:37:11.500Z,7.10
2023-01-25T22:39:39.098Z,7.20
2023-01-25T22:42:06.653Z,7.20
2023-01-25T22:44:34.195Z,7.30
2023-01-25T22:47:01.586Z,7.20
2023-01-25T22:49:29.028Z,7.20
2023-01-25T22:51:56.469Z,7.20
2023-01-25T22:54:23.915Z,7.20
2023-01-25T22:56:51.369Z,7.20
2023-01-25T22:59:19.396Z,7.20
2023-01-25T23:01:46.875Z,7.20
2023-01-25T23:04:14.511Z,7.20
2023-01-25T23:06:41.993Z,7.20
2023-01-25T23:09:10.672Z,7.20
2023-01-25T23:11:38.250Z,7.20
2023-01-25T23:14:27.513Z,7.20
2023-01-25T23:17:17.893Z,7.20
2023-01-25T23:19:45.541Z,7.20
2023-01-25T23:22:13.157Z,7.20
2023-01-25T23:24:40.685Z,7.20
2023-01-25T23:27:08.146Z,7.20
2023-01-25T23:29:35.639Z,7.10
2023-01-25T23:32:03.114Z,7.10
2023-01-25T23:34:34.825Z,7.10
2023-01-25T23:37:02.403Z,7.00
2023-01-25T23:39:29.903Z,7.00
2023-01-25T23:41:57.417Z,7.00
2023-01-25T23:44:24.923Z,7.00
2023-01-25T23:46:52.387Z,6.90
2023-01-25T23:49:19.776Z,6.90
2023-01-25T23:51:47.326Z,6.90
2023-01-25T23:54:14.883Z,6.90
2023-01-25T23:56:42.408Z,6.90
2023-01-25T23:59:09.886Z,7.00
